BrazilFixed distance
Ultramaratona dos Perdidos 45 Km
14 Jul2018
Distance
45km
Finishers
146113 men33 women
Winning time
5:01:19h
Median pace
4.93km/h
Pace distribution
146 finishers · 3.45–8.96 km/h · mean 5.23
Every finisher ran the same 45 km course, so these paces are directly comparable.
Histogram of finisher pace. 146 finishers ranged from 3.45 to 8.96 kilometres per hour, with a mean of 5.23 and a median of 4.93. The busiest band is 4.5 to 5.0 kilometres per hour, with 42 finishers.
Results
Ranks 1–50 of 146
| Rank | Runner | Time | Pace | Cat. | Placing |
|---|---|---|---|---|---|
| 1 | Território | 5:01:19h | 8.96 | M23 | 1st M · 1st M23 |
| 2 | Torres Trail Run | 5:55:49h | 7.59 | M40 | 2nd M · 1st M40 |
| 3 | 4Run | 5:56:17h | 7.58 | M35 | 3rd M · 1st M35 |
| 4 | Equipiazza | 6:00:26h | 7.49 | M35 | 4th M · 2nd M35 |
| 5 | Equipiazza - Kailash Team | 6:08:24h | 7.33 | W23 | 1st F · 1st W23 |
| 6 | 6:12:33h | 7.25 | M23 | 5th M · 2nd M23 | |
| 7 | CR Runners | 6:34:25h | 6.85 | M23 | 6th M · 3rd M23 |
| 8 | CIA Dos Cavalos/361 Br... | 6:34:27h | 6.84 | M35 | 7th M · 3rd M35 |
| 9 | Ponto B Running | 6:38:25h | 6.78 | M23 | 8th M · 4th M23 |
| 10 | Tendência Outdoor | 6:40:36h | 6.74 | M23 | 9th M · 5th M23 |
| 11 | Torres Trail Run | 6:43:26h | 6.69 | W23 | 2nd F · 2nd W23 |
| 12 | Moving Body | 6:43:40h | 6.69 | M35 | 10th M · 4th M35 |
| 13 | Upfit | 6:49:34h | 6.59 | W40 | 3rd F · 1st W40 |
| 14 | Carbono Assessoria Esp... | 6:49:50h | 6.59 | M40 | 11th M · 2nd M40 |
| 15 | Clube Ingá | 6:50:38h | 6.58 | M23 | 12th M · 6th M23 |
| 16 | 6:54:55h | 6.51 | M40 | 13th M · 3rd M40 | |
| 17 | BPM | 6:56:34h | 6.48 | M23 | 14th M · 7th M23 |
| 18 | Cbsports | 6:57:10h | 6.47 | M35 | 15th M · 5th M35 |
| 19 | V8 4X4 | 6:58:11h | 6.46 | M23 | 16th M · 8th M23 |
| 20 | Long Life Runners | 7:03:34h | 6.37 | M23 | 17th M · 9th M23 |
| 21 | Lino Júnior Personal T... | 7:07:09h | 6.32 | M50 | 18th M · 1st M50 |
| 22 | Kailash / 4 X Team/ Ti... | 7:09:35h | 6.29 | M40 | 19th M · 4th M40 |
| 23 | SPF Running | 7:17:39h | 6.17 | M23 | 20th M · 10th M23 |
| 24 | V8 4X4 | 7:19:18h | 6.15 | M23 | 21st M · 11th M23 |
| 25 | Panotex Decorações | 7:20:24h | 6.13 | M45 | 22nd M · 1st M45 |
| 26 | 7:20:24h | 6.13 | M40 | 22nd M · 5th M40 | |
| 27 | Equipe Neris | 7:22:53h | 6.10 | M40 | 24th M · 6th M40 |
| 28 | Lobo Adventure | 7:24:59h | 6.07 | M35 | 25th M · 6th M35 |
| 29 | Trail Runners Brasil | 7:30:25h | 5.99 | M23 | 26th M · 12th M23 |
| 30 | Equipe de Corrida Tucanos | 7:30:36h | 5.99 | M35 | 27th M · 7th M35 |
| 31 | Ultra Trail Eventos | 7:35:01h | 5.93 | M23 | 28th M · 13th M23 |
| 32 | V8 Assessoria | 7:37:31h | 5.90 | M23 | 29th M · 14th M23 |
| 33 | Morretes | 7:39:12h | 5.88 | M23 | 30th M · 15th M23 |
| 34 | Brothers Runners | 7:40:05h | 5.87 | W35 | 4th F · 1st W35 |
| 35 | 7:40:25h | 5.86 | M23 | 31st M · 16th M23 | |
| 36 | Momontanha | 7:40:33h | 5.86 | M23 | 32nd M · 17th M23 |
| 37 | Tendência Outdoor | 7:40:42h | 5.86 | M40 | 33rd M · 7th M40 |
| 38 | 7:41:33h | 5.85 | M35 | 34th M · 8th M35 | |
| 39 | 7:42:40h | 5.84 | M45 | 35th M · 2nd M45 | |
| 40 | BPM/Anicesk/Bbcautomação | 7:43:10h | 5.83 | M23 | 36th M · 18th M23 |
| 41 | Felipe Team Multisports | 7:43:27h | 5.83 | M45 | 37th M · 3rd M45 |
| 42 | Adevan Pereira | 7:43:36h | 5.82 | W35 | 5th F · 2nd W35 |
| 43 | Plamex | 7:47:09h | 5.78 | M35 | 38th M · 9th M35 |
| 44 | Carbono Assessoria Esp... | 7:57:00h | 5.66 | M35 | 39th M · 10th M35 |
| 45 | 7:57:26h | 5.66 | M45 | 40th M · 4th M45 | |
| 46 | Veloz Assessoria Espor... | 7:57:32h | 5.65 | M23 | 41st M · 19th M23 |
| 47 | R80 - Corrida E Caminhada | 8:01:50h | 5.60 | M23 | 42nd M · 20th M23 |
| 48 | Manocchio Triathlon Team | 8:02:13h | 5.60 | M40 | 43rd M · 8th M40 |
| 49 | 8:08:22h | 5.53 | W35 | 6th F · 3rd W35 | |
| 50 | RMD Garcia | 8:16:30h | 5.44 | M40 | 44th M · 9th M40 |
- 1Território1st M · 1st M23Time5:01:19hPace8.96Cat.M23
- 2Torres Trail Run2nd M · 1st M40Time5:55:49hPace7.59Cat.M40
- 34Run3rd M · 1st M35Time5:56:17hPace7.58Cat.M35
- 4Equipiazza4th M · 2nd M35Time6:00:26hPace7.49Cat.M35
- 5Equipiazza - Kailash Team1st F · 1st W23Time6:08:24hPace7.33Cat.W23
- 65th M · 2nd M23Time6:12:33hPace7.25Cat.M23
- 7CR Runners6th M · 3rd M23Time6:34:25hPace6.85Cat.M23
- 8CIA Dos Cavalos/361 Br...7th M · 3rd M35Time6:34:27hPace6.84Cat.M35
- 9Ponto B Running8th M · 4th M23Time6:38:25hPace6.78Cat.M23
- 10Tendência Outdoor9th M · 5th M23Time6:40:36hPace6.74Cat.M23
- 11Torres Trail Run2nd F · 2nd W23Time6:43:26hPace6.69Cat.W23
- 12Moving Body10th M · 4th M35Time6:43:40hPace6.69Cat.M35
- 13Upfit3rd F · 1st W40Time6:49:34hPace6.59Cat.W40
- 14Carbono Assessoria Esp...11th M · 2nd M40Time6:49:50hPace6.59Cat.M40
- 15Clube Ingá12th M · 6th M23Time6:50:38hPace6.58Cat.M23
- 1613th M · 3rd M40Time6:54:55hPace6.51Cat.M40
- 17BPM14th M · 7th M23Time6:56:34hPace6.48Cat.M23
- 18Cbsports15th M · 5th M35Time6:57:10hPace6.47Cat.M35
- 19V8 4X416th M · 8th M23Time6:58:11hPace6.46Cat.M23
- 20Long Life Runners17th M · 9th M23Time7:03:34hPace6.37Cat.M23
- 21Lino Júnior Personal T...18th M · 1st M50Time7:07:09hPace6.32Cat.M50
- 22Kailash / 4 X Team/ Ti...19th M · 4th M40Time7:09:35hPace6.29Cat.M40
- 23SPF Running20th M · 10th M23Time7:17:39hPace6.17Cat.M23
- 24V8 4X421st M · 11th M23Time7:19:18hPace6.15Cat.M23
- 25Panotex Decorações22nd M · 1st M45Time7:20:24hPace6.13Cat.M45
- 2622nd M · 5th M40Time7:20:24hPace6.13Cat.M40
- 27Equipe Neris24th M · 6th M40Time7:22:53hPace6.10Cat.M40
- 28Lobo Adventure25th M · 6th M35Time7:24:59hPace6.07Cat.M35
- 29Trail Runners Brasil26th M · 12th M23Time7:30:25hPace5.99Cat.M23
- 30Equipe de Corrida Tucanos27th M · 7th M35Time7:30:36hPace5.99Cat.M35
- 31Ultra Trail Eventos28th M · 13th M23Time7:35:01hPace5.93Cat.M23
- 32V8 Assessoria29th M · 14th M23Time7:37:31hPace5.90Cat.M23
- 33Morretes30th M · 15th M23Time7:39:12hPace5.88Cat.M23
- 34Brothers Runners4th F · 1st W35Time7:40:05hPace5.87Cat.W35
- 3531st M · 16th M23Time7:40:25hPace5.86Cat.M23
- 36Momontanha32nd M · 17th M23Time7:40:33hPace5.86Cat.M23
- 37Tendência Outdoor33rd M · 7th M40Time7:40:42hPace5.86Cat.M40
- 3834th M · 8th M35Time7:41:33hPace5.85Cat.M35
- 3935th M · 2nd M45Time7:42:40hPace5.84Cat.M45
- 40BPM/Anicesk/Bbcautomação36th M · 18th M23Time7:43:10hPace5.83Cat.M23
- 41Felipe Team Multisports37th M · 3rd M45Time7:43:27hPace5.83Cat.M45
- 42Adevan Pereira5th F · 2nd W35Time7:43:36hPace5.82Cat.W35
- 43Plamex38th M · 9th M35Time7:47:09hPace5.78Cat.M35
- 44Carbono Assessoria Esp...39th M · 10th M35Time7:57:00hPace5.66Cat.M35
- 4540th M · 4th M45Time7:57:26hPace5.66Cat.M45
- 46Veloz Assessoria Espor...41st M · 19th M23Time7:57:32hPace5.65Cat.M23
- 47R80 - Corrida E Caminhada42nd M · 20th M23Time8:01:50hPace5.60Cat.M23
- 48Manocchio Triathlon Team43rd M · 8th M40Time8:02:13hPace5.60Cat.M40
- 496th F · 3rd W35Time8:08:22hPace5.53Cat.W35
- 50RMD Garcia44th M · 9th M40Time8:16:30hPace5.44Cat.M40
Showing ranks 1–50 of 146